CST,Max TemperatureF,Mean TemperatureF,Min TemperatureF,Max Dew PointF,MeanDew PointF,Min DewpointF,Max Humidity, Mean Humidity, Min Humidity, Max Sea Level PressureIn, Mean Sea Level PressureIn, Min Sea Level PressureIn, Max VisibilityMiles, Mean VisibilityMiles, Min VisibilityMiles, Max Wind SpeedMPH, Mean Wind SpeedMPH, Max Gust SpeedMPH,PrecipitationIn, CloudCover, Events, WindDirDegrees
2013-11-1,56,48,40,39,38,36,89,70,51,29.88,29.70,29.51,10,10,10,23,12,30,0.02,6,Rain,293
2013-11-2,54,42,30,38,35,29,89,65,41,30.14,30.06,29.89,10,10,9,20,9,25,0.00,4,,313
2013-11-3,56,43,30,35,31,28,92,65,38,30.15,30.04,29.92,10,10,8,29,14,37,0.00,0,,150
2013-11-4,54,46,37,46,41,35,92,74,56,30.17,29.99,29.90,10,10,7,21,10,26,0.10,7,Rain,192
2013-11-5,56,48,39,55,45,37,100,86,71,30.19,29.96,29.78,10,5,1,23,7,29,1.01,8,Rain,75
2013-11-6,45,36,27,37,30,23,100,73,45,30.28,30.12,29.88,10,10,4,28,13,33,0.00,4,,318
2013-11-7,46,37,27,34,28,23,92,67,41,30.33,30.30,30.24,10,10,10,20,9,25,0.00,2,,278
2013-11-8,57,40,22,37,30,21,100,70,40,30.29,30.00,29.78,10,10,10,30,11,40,0.00,0,,172
2013-11-9,56,46,36,37,34,28,76,60,43,30.32,30.06,29.84,10,10,10,25,16,32,0.00,0,,289
2013-11-10,47,36,24,32,27,22,92,71,49,30.45,30.32,30.15,10,10,10,13,7,18,0.00,4,,237
2013-11-11,45,31,16,33,22,9,82,70,58,30.75,30.39,30.09,10,7,1,31,16,36,T,6,Snow,347
2013-11-12,29,20,10,12,10,6,84,63,42,30.89,30.78,30.60,10,10,8,15,7,20,0.00,0,,294
2013-11-13,50,35,19,24,17,11,73,53,33,30.59,30.29,30.04,10,10,10,28,14,34,0.00,0,,204
2013-11-14,53,42,31,30,25,20,78,58,38,30.02,29.94,29.88,10,10,7,18,9,24,0.00,1,,221
2013-11-15,55,39,22,34,30,22,92,69,46,29.92,29.84,29.72,10,10,9,13,6,18,0.00,0,,170
2013-11-16,65,52,38,56,46,36,92,79,66,29.70,29.46,29.31,10,8,5,23,12,33,0.04,5,Rain,172
2013-11-17,50,45,39,44,40,34,96,83,70,29.96,29.54,29.30,10,10,4,24,12,30,0.32,5,Rain-Thunderstorm,309
2013-11-18,46,36,25,33,29,24,100,79,58,30.29,30.18,29.96,10,10,7,21,9,26,0.00,0,,300
2013-11-19,52,38,24,33,29,22,100,72,44,30.28,30.15,30.01,10,9,6,22,12,29,0.00,2,,146
2013-11-20,44,41,37,37,33,27,92,73,53,30.03,29.96,29.89,10,9,3,21,13,29,0.01,8,,149
2013-11-21,38,31,24,36,29,21,100,92,84,30.48,30.23,30.02,10,3,0,24,14,30,0.08,8,Fog-Rain-Snow,8
2013-11-22,24,15,6,21,13,4,88,72,55,30.67,30.57,30.45,10,8,1,26,11,33,T,3,Snow,326
2013-11-23,19,10,0,10,2,-4,87,73,59,30.89,30.81,30.64,10,10,10,24,13,30,0.00,0,,329
2013-11-24,26,12,-2,12,5,-4,95,71,46,30.79,30.56,30.27,10,10,10,18,9,24,0.00,0,,195
2013-11-25,34,27,20,27,21,12,92,76,60,30.25,30.16,30.11,10,8,1,26,12,33,0.01,4,Snow,235
2013-11-26,31,23,15,23,14,7,88,69,50,30.40,30.27,30.15,10,10,10,32,16,40,0.00,3,,335
2013-11-27,24,16,8,13,8,4,80,70,59,30.43,30.30,30.10,10,10,9,14,8,17,0.00,0,,226
2013-11-28,31,21,11,17,13,8,84,69,53,30.55,30.33,30.07,10,10,10,21,9,26,0.00,0,,337
2013-11-29,43,22,7,23,14,4,91,68,45,30.56,30.43,30.21,10,10,9,15,6,19,0.00,0,,146
2013-11-30,64,58,57,33,32,30,36,34,31,30.18,30.10,30.05,10,9,4,10,5,,0.00,0,,231